createdAt,value
2023-02-09T00:00:11.045Z,95598.09
2023-02-09T00:01:10.415Z,95620.56
2023-02-09T00:02:07.534Z,95614.38
2023-02-09T00:03:04.195Z,95558.66
2023-02-09T00:04:02.622Z,95616.81
2023-02-09T00:04:59.739Z,95610.19
2023-02-09T00:05:58.532Z,95607.53
2023-02-09T00:06:55.180Z,95623.25
2023-02-09T00:07:51.832Z,95621.53
2023-02-09T00:08:48.664Z,95623.31
2023-02-09T00:09:45.453Z,95625.09
2023-02-09T00:10:42.055Z,95554.19
2023-02-09T00:11:57.144Z,95627.75
2023-02-09T00:13:12.592Z,95618.06
2023-02-09T00:14:10.842Z,95630.34
2023-02-09T00:15:08.490Z,95623.25
2023-02-09T00:16:05.695Z,95623.72
2023-02-09T00:17:03.717Z,95628.78
2023-02-09T00:18:00.303Z,95628.50
2023-02-09T00:18:57.391Z,95625.69
2023-02-09T00:19:55.171Z,95566.75
2023-02-09T00:21:03.679Z,95622.28
2023-02-09T00:22:00.732Z,95628.00
2023-02-09T00:22:57.327Z,95596.28
2023-02-09T00:23:53.942Z,95619.41
2023-02-09T00:24:50.531Z,95619.84
2023-02-09T00:25:47.162Z,95612.25
2023-02-09T00:26:44.378Z,95623.72
2023-02-09T00:27:40.982Z,95595.69
2023-02-09T00:28:38.046Z,95622.47
2023-02-09T00:29:34.885Z,95621.59
2023-02-09T00:30:31.485Z,95619.63
2023-02-09T00:31:28.302Z,95611.94
2023-02-09T00:32:25.049Z,95616.75
2023-02-09T00:33:21.981Z,95589.09
2023-02-09T00:34:19.144Z,95562.84
2023-02-09T00:35:15.802Z,95614.63
2023-02-09T00:36:13.919Z,95617.31
2023-02-09T00:37:10.586Z,95613.97
2023-02-09T00:38:07.581Z,95576.03
2023-02-09T00:39:04.457Z,95581.84
2023-02-09T00:40:01.017Z,95607.06
2023-02-09T00:40:57.631Z,95612.00
2023-02-09T00:42:06.394Z,95597.47
2023-02-09T00:43:03.426Z,95599.34
2023-02-09T00:44:00.151Z,95603.78
2023-02-09T00:44:56.758Z,95595.34
2023-02-09T00:45:53.367Z,95601.78
2023-02-09T00:46:52.211Z,95603.28
2023-02-09T00:47:48.822Z,95605.13
2023-02-09T00:48:45.429Z,95597.69
2023-02-09T00:49:42.057Z,95597.41
2023-02-09T00:50:38.643Z,95607.88
2023-02-09T00:51:35.608Z,95604.06
2023-02-09T00:52:33.357Z,95605.53
2023-02-09T00:53:29.902Z,95604.41
2023-02-09T00:54:26.906Z,95548.81
2023-02-09T00:55:23.571Z,95584.72
2023-02-09T00:56:20.245Z,95609.63
2023-02-09T00:57:16.820Z,95598.94
2023-02-09T00:58:13.618Z,95597.22
2023-02-09T00:59:11.165Z,95573.31
2023-02-09T01:00:08.613Z,95589.75
2023-02-09T01:01:05.396Z,95568.44
2023-02-09T01:02:02.852Z,95586.97
2023-02-09T01:02:59.696Z,95587.72
2023-02-09T01:03:56.939Z,95547.63
2023-02-09T01:04:53.579Z,95584.56
2023-02-09T01:05:50.235Z,95587.19
2023-02-09T01:06:46.793Z,95581.50
2023-02-09T01:07:43.446Z,95581.13
2023-02-09T01:08:40.075Z,95593.59
2023-02-09T01:09:36.739Z,95484.00
2023-02-09T01:10:33.974Z,95597.06
2023-02-09T01:11:30.637Z,95572.06
2023-02-09T01:12:27.226Z,95559.88
2023-02-09T01:13:23.901Z,95594.56
2023-02-09T01:14:20.483Z,95590.22
2023-02-09T01:15:17.135Z,95533.41
2023-02-09T01:16:16.517Z,95585.69
2023-02-09T01:17:14.217Z,95573.97
2023-02-09T01:18:10.814Z,95521.09
2023-02-09T01:19:07.362Z,95576.31
2023-02-09T01:20:06.259Z,95582.59
2023-02-09T01:21:03.319Z,95578.22
2023-02-09T01:22:00.132Z,95581.44
2023-02-09T01:22:56.829Z,95582.34
2023-02-09T01:23:53.492Z,95584.50
2023-02-09T01:24:50.102Z,95590.59
2023-02-09T01:25:46.707Z,95589.84
2023-02-09T01:26:43.412Z,95588.69
2023-02-09T01:27:40.524Z,95592.00
2023-02-09T01:28:37.895Z,95591.53
2023-02-09T01:29:34.472Z,95566.47
2023-02-09T01:30:31.105Z,95587.94
2023-02-09T01:31:30.567Z,95573.56
2023-02-09T01:32:27.498Z,95581.91
2023-02-09T01:33:24.156Z,95578.88
2023-02-09T01:34:20.731Z,95581.69
2023-02-09T01:35:17.652Z,95518.06
2023-02-09T01:36:14.464Z,95521.91
2023-02-09T01:37:11.070Z,95597.63
2023-02-09T01:38:07.631Z,95545.06
2023-02-09T01:39:04.915Z,95571.47
2023-02-09T01:40:03.598Z,95545.97
2023-02-09T01:41:00.173Z,95574.75
2023-02-09T01:41:56.784Z,95566.53
2023-02-09T01:42:53.376Z,95572.53
2023-02-09T01:44:06.358Z,95542.75
2023-02-09T01:45:08.210Z,95551.63
2023-02-09T01:46:05.003Z,95570.84
2023-02-09T01:47:01.587Z,95556.59
2023-02-09T01:48:01.505Z,95571.19
2023-02-09T01:49:09.623Z,95565.31
2023-02-09T01:50:06.735Z,95553.66
2023-02-09T01:51:04.035Z,95537.22
2023-02-09T01:52:10.199Z,95553.59
2023-02-09T01:53:07.549Z,95558.47
2023-02-09T01:54:13.340Z,95538.38
2023-02-09T01:55:14.236Z,95551.38
2023-02-09T01:56:21.316Z,95546.84
2023-02-09T01:57:27.797Z,95556.97
2023-02-09T01:58:26.830Z,95549.03
2023-02-09T01:59:24.411Z,95553.84
2023-02-09T02:00:22.396Z,95544.28
2023-02-09T02:01:19.150Z,95550.25
2023-02-09T02:02:16.059Z,95511.50
2023-02-09T02:03:17.482Z,95553.06
2023-02-09T02:04:14.361Z,95551.22
2023-02-09T02:05:11.361Z,95545.06
2023-02-09T02:06:14.081Z,95544.81
2023-02-09T02:07:17.883Z,95523.09
2023-02-09T02:08:20.288Z,95543.28
2023-02-09T02:09:17.783Z,95545.53
2023-02-09T02:10:14.570Z,95538.91
2023-02-09T02:11:11.328Z,95483.59
2023-02-09T02:12:07.970Z,95541.38
2023-02-09T02:13:04.672Z,95537.03
2023-02-09T02:14:01.422Z,95509.91
2023-02-09T02:14:58.275Z,95539.22
2023-02-09T02:16:02.014Z,95542.38
2023-02-09T02:17:33.354Z,95534.41
2023-02-09T02:18:55.301Z,95540.00
2023-02-09T02:20:15.970Z,95553.94
2023-02-09T02:21:18.135Z,95535.09
2023-02-09T02:22:52.342Z,95531.84
2023-02-09T02:23:59.601Z,95498.09
2023-02-09T02:25:17.041Z,95544.44
2023-02-09T02:26:22.443Z,95529.47
2023-02-09T02:27:40.746Z,95535.72
2023-02-09T02:29:03.687Z,95539.28
2023-02-09T02:30:06.373Z,95530.09
2023-02-09T02:31:14.923Z,95529.44
2023-02-09T02:32:29.779Z,95525.53
2023-02-09T02:33:51.208Z,95526.81
2023-02-09T02:35:04.995Z,95454.66
2023-02-09T02:36:28.448Z,95519.53
2023-02-09T02:37:37.910Z,95517.25
2023-02-09T02:38:53.767Z,95519.66
2023-02-09T02:39:55.855Z,95528.19
2023-02-09T02:40:52.592Z,95516.16
2023-02-09T02:42:13.707Z,95514.06
2023-02-09T02:43:59.776Z,95517.28
2023-02-09T02:45:15.196Z,95523.06
2023-02-09T02:46:35.879Z,95522.84
2023-02-09T02:47:36.847Z,95515.00
2023-02-09T02:48:47.225Z,95507.50
2023-02-09T02:49:55.784Z,95478.09
2023-02-09T02:50:55.442Z,95513.94
2023-02-09T02:51:56.752Z,95503.97
2023-02-09T02:52:56.623Z,95506.56
2023-02-09T02:53:57.072Z,95472.53
2023-02-09T02:55:05.144Z,95517.41
2023-02-09T02:56:08.107Z,95508.75
2023-02-09T02:57:11.416Z,95514.13
2023-02-09T02:58:11.385Z,95514.16
2023-02-09T02:59:14.241Z,95508.38
2023-02-09T03:00:15.022Z,95428.47
2023-02-09T03:01:17.431Z,95506.03
2023-02-09T03:02:17.522Z,95504.88
2023-02-09T03:03:19.755Z,95486.31
2023-02-09T03:04:18.206Z,95504.59
2023-02-09T03:05:17.943Z,95458.00
2023-02-09T03:06:15.946Z,95473.59
2023-02-09T03:07:12.725Z,95497.34
2023-02-09T03:08:09.393Z,95461.56
2023-02-09T03:09:06.180Z,95498.38
2023-02-09T03:10:22.875Z,95473.81
2023-02-09T03:11:21.439Z,95495.22
2023-02-09T03:12:39.875Z,95499.69
2023-02-09T03:13:45.553Z,95491.66
2023-02-09T03:15:08.132Z,95507.09
2023-02-09T03:16:23.450Z,95504.78
2023-02-09T03:17:34.789Z,95499.16
2023-02-09T03:18:43.701Z,95505.50
2023-02-09T03:19:51.313Z,95500.50
2023-02-09T03:21:04.731Z,95501.16
2023-02-09T03:22:08.031Z,95491.34
2023-02-09T03:23:10.540Z,95495.63
2023-02-09T03:24:37.732Z,95460.47
2023-02-09T03:25:45.202Z,95497.13
2023-02-09T03:26:49.697Z,95502.44
2023-02-09T03:27:59.458Z,95504.41
2023-02-09T03:28:57.939Z,95511.06
2023-02-09T03:29:59.178Z,95497.16
2023-02-09T03:30:57.691Z,95500.22
2023-02-09T03:31:55.155Z,95489.84
2023-02-09T03:32:56.372Z,95442.69
2023-02-09T03:33:53.068Z,95469.75
2023-02-09T03:34:50.210Z,95467.09
2023-02-09T03:35:50.348Z,95489.53
2023-02-09T03:36:52.691Z,95489.69
2023-02-09T03:37:49.210Z,95493.44
2023-02-09T03:38:45.852Z,95494.59
2023-02-09T03:39:42.487Z,95498.06
2023-02-09T03:40:39.105Z,95490.13
2023-02-09T03:41:35.700Z,95489.72
2023-02-09T03:42:32.282Z,95492.72
2023-02-09T03:43:47.441Z,95490.47
2023-02-09T03:44:43.978Z,95487.81
2023-02-09T03:45:40.717Z,95458.56
2023-02-09T03:46:37.360Z,95498.31
2023-02-09T03:47:34.610Z,95471.50
2023-02-09T03:48:31.177Z,95502.06
2023-02-09T03:49:33.643Z,95503.06
2023-02-09T03:50:30.269Z,95501.31
2023-02-09T03:51:26.899Z,95504.91
2023-02-09T03:52:23.518Z,95507.22
2023-02-09T03:53:20.134Z,95509.19
2023-02-09T03:54:16.848Z,95507.00
2023-02-09T03:55:13.482Z,95420.19
2023-02-09T03:56:10.085Z,95506.66
2023-02-09T03:57:07.754Z,95479.94
2023-02-09T03:58:04.472Z,95513.16
2023-02-09T03:59:01.180Z,95514.75
2023-02-09T03:59:57.842Z,95489.84
2023-02-09T04:00:54.554Z,95504.38
2023-02-09T04:01:52.581Z,95513.38
2023-02-09T04:02:49.173Z,95512.16
2023-02-09T04:03:45.820Z,95483.72
2023-02-09T04:04:42.455Z,95444.38
2023-02-09T04:05:39.149Z,95503.38
2023-02-09T04:06:36.499Z,95484.81
2023-02-09T04:07:33.050Z,95501.81
2023-02-09T04:08:30.118Z,95507.22
2023-02-09T04:09:28.346Z,95449.94
2023-02-09T04:10:24.959Z,95505.88
2023-02-09T04:11:23.411Z,95504.00
2023-02-09T04:12:20.203Z,95501.16
2023-02-09T04:13:16.785Z,95507.50
2023-02-09T04:14:13.390Z,95496.41
2023-02-09T04:15:10.378Z,95507.91
2023-02-09T04:16:07.223Z,95442.47
2023-02-09T04:17:03.916Z,95508.97
2023-02-09T04:18:00.488Z,95507.56
2023-02-09T04:18:57.186Z,95509.91
2023-02-09T04:19:53.768Z,95509.31
2023-02-09T04:20:50.371Z,95475.66
2023-02-09T04:21:46.907Z,95509.97
2023-02-09T04:22:43.497Z,95512.16
2023-02-09T04:23:40.132Z,95417.50
2023-02-09T04:24:36.689Z,95499.59
2023-02-09T04:25:33.289Z,95495.75
2023-02-09T04:26:29.897Z,95497.25
2023-02-09T04:27:28.461Z,95468.13
2023-02-09T04:28:25.116Z,95505.06
2023-02-09T04:29:21.731Z,95500.19
2023-02-09T04:30:18.445Z,95509.19
2023-02-09T04:31:15.648Z,95504.41
2023-02-09T04:32:12.372Z,95437.97
2023-02-09T04:33:11.011Z,95503.38
2023-02-09T04:34:07.608Z,95495.19
2023-02-09T04:35:04.535Z,95484.31
2023-02-09T04:36:01.207Z,95483.09
2023-02-09T04:36:57.768Z,95495.53
2023-02-09T04:37:54.471Z,95491.09
2023-02-09T04:38:51.169Z,95488.59
2023-02-09T04:39:47.721Z,95494.78
2023-02-09T04:40:44.575Z,95500.72
2023-02-09T04:41:41.319Z,95463.13
2023-02-09T04:42:37.980Z,95466.47
2023-02-09T04:43:34.733Z,95504.25
2023-02-09T04:44:31.313Z,95505.13
2023-02-09T04:45:28.048Z,95502.59
2023-02-09T04:46:24.668Z,95502.53
2023-02-09T04:47:21.330Z,95496.88
2023-02-09T04:48:20.441Z,95503.53
2023-02-09T04:49:17.055Z,95498.81
2023-02-09T04:50:15.047Z,95506.78
2023-02-09T04:51:11.718Z,95507.94
2023-02-09T04:52:08.667Z,95514.25
2023-02-09T04:53:05.379Z,95507.75
2023-02-09T04:54:01.930Z,95436.66
2023-02-09T04:54:58.511Z,95447.59
2023-02-09T04:55:55.139Z,95494.81
2023-02-09T04:57:11.827Z,95474.88
2023-02-09T04:58:30.479Z,95502.47
2023-02-09T04:59:34.991Z,95508.53
2023-02-09T05:00:31.715Z,95467.31
2023-02-09T05:01:28.536Z,95455.34
2023-02-09T05:02:25.149Z,95507.59
2023-02-09T05:03:24.504Z,95404.59
2023-02-09T05:04:21.305Z,95492.72
2023-02-09T05:05:19.728Z,95510.78
2023-02-09T05:06:17.243Z,95510.44
2023-02-09T05:07:13.832Z,95510.25
2023-02-09T05:08:10.541Z,95505.25
2023-02-09T05:09:07.176Z,95509.00
2023-02-09T05:10:03.951Z,95508.63
2023-02-09T05:11:00.644Z,95436.75
2023-02-09T05:11:57.256Z,95447.81
2023-02-09T05:12:53.877Z,95510.22
2023-02-09T05:13:50.446Z,95503.31
2023-02-09T05:14:46.976Z,95504.69
2023-02-09T05:15:43.793Z,95518.22
2023-02-09T05:16:40.418Z,95441.44
2023-02-09T05:17:37.295Z,95487.69
2023-02-09T05:18:35.632Z,95501.34
2023-02-09T05:19:32.364Z,95512.69
2023-02-09T05:20:28.932Z,95487.47
2023-02-09T05:21:25.494Z,95484.19
2023-02-09T05:22:22.059Z,95506.41
2023-02-09T05:23:18.728Z,95490.38
2023-02-09T05:24:15.333Z,95499.78
2023-02-09T05:25:11.940Z,95496.47
2023-02-09T05:26:09.024Z,95502.59
2023-02-09T05:27:05.797Z,95498.94
2023-02-09T05:28:03.133Z,95476.53
2023-02-09T05:28:59.794Z,95501.28
2023-02-09T05:29:56.421Z,95496.72
2023-02-09T05:30:54.240Z,95468.25
2023-02-09T05:31:50.903Z,95479.75
2023-02-09T05:32:47.884Z,95504.97
2023-02-09T05:33:44.509Z,95439.34
2023-02-09T05:34:41.369Z,95499.31
2023-02-09T05:35:37.979Z,95468.66
2023-02-09T05:36:34.536Z,95507.66
2023-02-09T05:37:31.121Z,95490.38
2023-02-09T05:38:27.784Z,95455.91
2023-02-09T05:39:24.446Z,95503.66
2023-02-09T05:40:21.137Z,95506.53
2023-02-09T05:41:37.731Z,95499.00
2023-02-09T05:42:34.349Z,95497.94
2023-02-09T05:43:30.946Z,95498.56
2023-02-09T05:44:27.603Z,95499.72
2023-02-09T05:45:24.266Z,95501.91
2023-02-09T05:46:20.883Z,95500.84
2023-02-09T05:47:20.164Z,95495.41
2023-02-09T05:48:16.789Z,95498.53
2023-02-09T05:49:13.403Z,95509.50
2023-02-09T05:50:09.942Z,95470.47
2023-02-09T05:51:06.619Z,95503.44
2023-02-09T05:52:03.500Z,95502.44
2023-02-09T05:53:00.189Z,95504.00
2023-02-09T05:53:56.736Z,95511.81
2023-02-09T05:54:53.375Z,95465.13
2023-02-09T05:55:49.930Z,95516.03
2023-02-09T05:56:46.517Z,95462.50
2023-02-09T05:57:43.131Z,95517.38
2023-02-09T05:58:39.701Z,95511.19
2023-02-09T05:59:36.272Z,95465.56
2023-02-09T06:00:33.035Z,95524.50
2023-02-09T06:01:29.577Z,95487.63
2023-02-09T06:02:26.294Z,95511.88
2023-02-09T06:03:23.022Z,95513.84
2023-02-09T06:04:19.810Z,95508.03
2023-02-09T06:05:16.594Z,95511.91
2023-02-09T06:06:13.194Z,95485.75
2023-02-09T06:07:11.872Z,95485.22
2023-02-09T06:08:08.612Z,95434.50
2023-02-09T06:09:05.268Z,95465.56
2023-02-09T06:10:02.012Z,95470.50
2023-02-09T06:10:58.714Z,95460.88
2023-02-09T06:11:55.371Z,95521.25
2023-02-09T06:12:51.951Z,95525.59
2023-02-09T06:13:48.616Z,95499.09
2023-02-09T06:14:45.242Z,95505.97
2023-02-09T06:15:41.904Z,95470.03
2023-02-09T06:16:38.612Z,95531.06
2023-02-09T06:17:35.168Z,95528.75
2023-02-09T06:18:31.830Z,95528.00
2023-02-09T06:19:28.430Z,95515.38
2023-02-09T06:20:25.031Z,95526.91
2023-02-09T06:21:21.615Z,95520.25
2023-02-09T06:22:18.198Z,95525.13
2023-02-09T06:23:14.908Z,95514.78
2023-02-09T06:24:12.504Z,95514.47
2023-02-09T06:25:09.239Z,95522.16
2023-02-09T06:26:10.463Z,95528.56
2023-02-09T06:27:07.105Z,95518.31
2023-02-09T06:28:03.834Z,95521.34
2023-02-09T06:29:00.596Z,95528.59
2023-02-09T06:29:57.240Z,95521.53
2023-02-09T06:30:54.294Z,95502.97
2023-02-09T06:31:51.238Z,95511.75
2023-02-09T06:32:47.915Z,95524.31
2023-02-09T06:33:44.597Z,95509.78
2023-02-09T06:34:41.190Z,95513.84
2023-02-09T06:35:37.798Z,95515.81
2023-02-09T06:36:34.751Z,95514.31
2023-02-09T06:37:31.370Z,95518.38
2023-02-09T06:38:31.291Z,95499.97
2023-02-09T06:39:29.917Z,95507.75
2023-02-09T06:40:26.568Z,95514.31
2023-02-09T06:41:23.240Z,95494.00
2023-02-09T06:42:19.850Z,95495.56
2023-02-09T06:43:17.580Z,95506.81
2023-02-09T06:44:14.234Z,95505.22
2023-02-09T06:45:15.539Z,95510.44
2023-02-09T06:46:13.364Z,95502.25
2023-02-09T06:47:10.048Z,95497.84
2023-02-09T06:48:08.281Z,95501.84
2023-02-09T06:49:05.145Z,95494.84
2023-02-09T06:50:02.160Z,95498.06
2023-02-09T06:50:58.943Z,95491.63
2023-02-09T06:51:55.776Z,95494.84
2023-02-09T06:52:53.448Z,95492.63
2023-02-09T06:53:50.180Z,95493.63
2023-02-09T06:54:46.831Z,95491.94
2023-02-09T06:55:43.449Z,95490.97
2023-02-09T06:56:40.184Z,95497.22
2023-02-09T06:57:37.259Z,95493.19
2023-02-09T06:58:34.568Z,95490.44
2023-02-09T06:59:31.221Z,95429.28
2023-02-09T07:00:28.250Z,95480.41
2023-02-09T07:01:24.899Z,95459.59
2023-02-09T07:02:21.608Z,95490.72
2023-02-09T07:03:18.261Z,95490.34
2023-02-09T07:04:14.844Z,95493.09
2023-02-09T07:05:12.434Z,95481.06
2023-02-09T07:06:14.041Z,95478.75
2023-02-09T07:07:10.752Z,95489.88
2023-02-09T07:08:07.429Z,95483.28
2023-02-09T07:09:04.152Z,95486.47
2023-02-09T07:10:00.746Z,95485.34
2023-02-09T07:10:57.361Z,95447.84
2023-02-09T07:11:53.978Z,95478.75
2023-02-09T07:12:50.627Z,95480.09
2023-02-09T07:13:47.355Z,95483.50
2023-02-09T07:14:43.951Z,95473.31
2023-02-09T07:15:40.562Z,95432.00
2023-02-09T07:16:37.184Z,95470.75
2023-02-09T07:17:34.018Z,95448.31
2023-02-09T07:18:30.756Z,95474.41
2023-02-09T07:19:27.980Z,95476.59
2023-02-09T07:20:24.560Z,95479.69
2023-02-09T07:21:21.548Z,95486.53
2023-02-09T07:22:18.081Z,95492.69
2023-02-09T07:23:14.669Z,95480.06
2023-02-09T07:24:11.302Z,95487.72
2023-02-09T07:25:07.967Z,95487.06
2023-02-09T07:26:06.832Z,95492.59
2023-02-09T07:27:04.975Z,95491.06
2023-02-09T07:28:01.610Z,95490.03
2023-02-09T07:28:58.154Z,95488.94
2023-02-09T07:29:54.730Z,95481.38
2023-02-09T07:30:52.896Z,95495.38
2023-02-09T07:31:49.538Z,95492.66
2023-02-09T07:32:46.120Z,95466.63
2023-02-09T07:33:42.913Z,95484.56
2023-02-09T07:34:39.761Z,95487.63
2023-02-09T07:35:40.502Z,95487.03
2023-02-09T07:36:37.146Z,95488.06
2023-02-09T07:37:35.918Z,95490.84
2023-02-09T07:38:33.466Z,95480.75
2023-02-09T07:39:30.396Z,95409.97
2023-02-09T07:40:27.538Z,95497.41
2023-02-09T07:41:28.680Z,95500.31
2023-02-09T07:42:25.274Z,95459.09
2023-02-09T07:43:21.830Z,95493.19
2023-02-09T07:44:18.633Z,95494.44
2023-02-09T07:45:15.361Z,95492.59
2023-02-09T07:46:17.425Z,95496.91
2023-02-09T07:47:14.462Z,95493.56
2023-02-09T07:48:11.852Z,95489.81
2023-02-09T07:49:08.508Z,95493.97
2023-02-09T07:50:05.880Z,95491.97
2023-02-09T07:51:03.306Z,95474.31
2023-02-09T07:51:59.935Z,95452.38
2023-02-09T07:52:56.642Z,95444.50
2023-02-09T07:53:53.676Z,95412.66
2023-02-09T07:54:51.721Z,95495.56
2023-02-09T07:55:48.521Z,95503.91
2023-02-09T07:56:45.253Z,95498.56
2023-02-09T07:57:41.820Z,95491.91
2023-02-09T07:58:38.571Z,95488.34
2023-02-09T07:59:35.277Z,95483.13
2023-02-09T08:00:31.871Z,95487.09
2023-02-09T08:01:28.699Z,95491.06
2023-02-09T08:02:36.622Z,95494.53
2023-02-09T08:03:35.921Z,95497.84
2023-02-09T08:04:32.539Z,95461.69
2023-02-09T08:05:29.160Z,95500.22
2023-02-09T08:06:42.054Z,95502.94
2023-02-09T08:07:40.370Z,95419.84
2023-02-09T08:08:36.989Z,95495.22
2023-02-09T08:09:33.783Z,95498.03
2023-02-09T08:10:30.544Z,95480.69
2023-02-09T08:11:51.327Z,95486.03
2023-02-09T08:12:59.953Z,95456.63
2023-02-09T08:14:01.844Z,95494.78
2023-02-09T08:14:58.479Z,95496.97
2023-02-09T08:16:00.902Z,95492.00
2023-02-09T08:17:20.335Z,95495.72
2023-02-09T08:18:27.511Z,95488.34
2023-02-09T08:19:24.617Z,95479.56
2023-02-09T08:20:25.612Z,95495.06
2023-02-09T08:21:22.971Z,95491.34
2023-02-09T08:22:21.984Z,95496.16
2023-02-09T08:23:33.716Z,95484.66
2023-02-09T08:24:31.944Z,95490.50
2023-02-09T08:25:28.674Z,95484.97
2023-02-09T08:26:25.937Z,95489.25
2023-02-09T08:27:23.291Z,95482.16
2023-02-09T08:28:21.736Z,95303.97
2023-02-09T08:29:18.602Z,95473.94
2023-02-09T08:30:17.342Z,95493.53
2023-02-09T08:31:16.923Z,95495.81
2023-02-09T08:32:13.749Z,95497.69
2023-02-09T08:33:10.395Z,95491.16
2023-02-09T08:34:07.277Z,95498.63
2023-02-09T08:35:04.275Z,95456.53
2023-02-09T08:36:01.048Z,95494.78
2023-02-09T08:36:57.653Z,95492.00
2023-02-09T08:37:54.333Z,95494.56
2023-02-09T08:38:50.893Z,95448.59
2023-02-09T08:39:47.528Z,95497.44
2023-02-09T08:40:44.282Z,95513.13
2023-02-09T08:41:40.946Z,95487.34
2023-02-09T08:42:37.581Z,95512.09
2023-02-09T08:43:35.284Z,95507.97
2023-02-09T08:44:32.008Z,95507.22
2023-02-09T08:45:29.016Z,95508.84
2023-02-09T08:46:25.851Z,95514.59
2023-02-09T08:47:23.004Z,95516.50
2023-02-09T08:48:19.603Z,95457.28
2023-02-09T08:49:16.247Z,95501.94
2023-02-09T08:50:12.894Z,95500.09
2023-02-09T08:51:11.384Z,95510.06
2023-02-09T08:52:08.428Z,95489.34
2023-02-09T08:53:06.860Z,95507.72
2023-02-09T08:54:03.529Z,95256.56
2023-02-09T08:55:00.177Z,95510.88
2023-02-09T08:55:56.813Z,95508.88
2023-02-09T08:56:53.496Z,95499.38
2023-02-09T08:57:50.136Z,95478.88
2023-02-09T08:58:46.778Z,95505.28
2023-02-09T08:59:43.385Z,95509.09
2023-02-09T09:00:39.999Z,95455.16
2023-02-09T09:01:36.739Z,95514.16
2023-02-09T09:02:34.057Z,95508.59
2023-02-09T09:03:32.875Z,95514.63
2023-02-09T09:04:29.616Z,95509.13
2023-02-09T09:05:26.280Z,95507.03
2023-02-09T09:06:23.086Z,95512.31
2023-02-09T09:07:19.744Z,95514.72
2023-02-09T09:08:16.348Z,95513.53
2023-02-09T09:09:13.090Z,95507.66
2023-02-09T09:10:10.945Z,95475.59
2023-02-09T09:11:12.911Z,95518.53
2023-02-09T09:12:09.637Z,95518.56
2023-02-09T09:13:06.323Z,95513.03
2023-02-09T09:14:02.914Z,95490.47
2023-02-09T09:14:59.481Z,95500.75
2023-02-09T09:15:56.305Z,95488.69
2023-02-09T09:16:53.386Z,95507.22
2023-02-09T09:17:50.010Z,95515.47
2023-02-09T09:18:47.076Z,95508.69
2023-02-09T09:19:43.755Z,95520.19
2023-02-09T09:20:41.379Z,95533.19
2023-02-09T09:21:37.980Z,95519.25
2023-02-09T09:22:34.913Z,95517.00
2023-02-09T09:23:31.515Z,95524.25
2023-02-09T09:24:28.401Z,95493.56
2023-02-09T09:25:25.274Z,95528.16
2023-02-09T09:26:21.966Z,95520.41
2023-02-09T09:27:18.626Z,95518.03
2023-02-09T09:28:15.932Z,95524.69
2023-02-09T09:29:12.537Z,95517.41
2023-02-09T09:30:09.809Z,95522.13
2023-02-09T09:31:14.530Z,95520.59
2023-02-09T09:32:15.483Z,95481.47
2023-02-09T09:33:12.186Z,95516.31
2023-02-09T09:34:08.749Z,95487.38
2023-02-09T09:35:05.816Z,95315.97
2023-02-09T09:36:04.168Z,95462.47
2023-02-09T09:37:00.749Z,95503.53
2023-02-09T09:37:58.574Z,95509.81
2023-02-09T09:38:56.521Z,95444.88
2023-02-09T09:39:53.367Z,95516.00
2023-02-09T09:40:49.957Z,95508.88
2023-02-09T09:41:49.076Z,95511.88
2023-02-09T09:42:51.546Z,95513.31
2023-02-09T09:43:49.041Z,95475.56
2023-02-09T09:44:47.318Z,95506.63
2023-02-09T09:45:46.824Z,95510.94
2023-02-09T09:46:47.949Z,95511.06
2023-02-09T09:47:45.235Z,95512.78
2023-02-09T09:48:49.200Z,95513.16
2023-02-09T09:49:46.189Z,95515.94
2023-02-09T09:50:43.988Z,95514.13
2023-02-09T09:51:46.324Z,95521.44
2023-02-09T09:52:47.632Z,95499.94
2023-02-09T09:53:46.125Z,95515.84
2023-02-09T09:54:44.197Z,95486.06
2023-02-09T09:55:41.084Z,95501.47
2023-02-09T09:56:38.727Z,95502.34
2023-02-09T09:57:40.574Z,95510.91
2023-02-09T09:58:43.343Z,95503.28
2023-02-09T09:59:42.266Z,95468.66
2023-02-09T10:00:41.343Z,95509.88
2023-02-09T10:01:38.025Z,95506.09
2023-02-09T10:02:34.931Z,95435.69
2023-02-09T10:03:31.496Z,95500.41
2023-02-09T10:04:28.709Z,95506.69
2023-02-09T10:05:35.318Z,95497.28
2023-02-09T10:06:35.374Z,95496.41
2023-02-09T10:08:49.501Z,95493.91
2023-02-09T10:09:52.520Z,95497.72
2023-02-09T10:10:59.898Z,95505.81
2023-02-09T10:12:18.573Z,95457.19
2023-02-09T10:13:23.214Z,95483.84
2023-02-09T10:14:20.596Z,95473.22
2023-02-09T10:15:24.154Z,95485.56
2023-02-09T10:16:20.739Z,95489.94
2023-02-09T10:17:17.372Z,95487.75
2023-02-09T10:18:17.171Z,95490.56
2023-02-09T10:19:23.320Z,95483.84
2023-02-09T10:20:41.480Z,95488.00
2023-02-09T10:21:38.482Z,95490.13
2023-02-09T10:22:35.410Z,95496.78
2023-02-09T10:24:01.004Z,95490.22
2023-02-09T10:24:59.468Z,95481.97
2023-02-09T10:26:16.181Z,95451.88
2023-02-09T10:27:31.843Z,95478.47
2023-02-09T10:28:34.557Z,95396.78
2023-02-09T10:29:31.633Z,95479.53
2023-02-09T10:30:28.937Z,95474.72
2023-02-09T10:31:47.673Z,95486.00
2023-02-09T10:32:44.719Z,95485.06
2023-02-09T10:33:44.635Z,95483.00
2023-02-09T10:34:46.296Z,95481.47
2023-02-09T10:36:06.183Z,95481.97
2023-02-09T10:37:28.429Z,95483.56
2023-02-09T10:38:33.003Z,95489.91
2023-02-09T10:39:34.007Z,95480.78
2023-02-09T10:40:39.292Z,95455.88
2023-02-09T10:41:36.059Z,95481.09
2023-02-09T10:42:37.660Z,95420.16
2023-02-09T10:43:35.306Z,95478.94
2023-02-09T10:44:35.517Z,95478.84
2023-02-09T10:45:42.161Z,95485.06
2023-02-09T10:46:39.869Z,95470.19
2023-02-09T10:47:36.639Z,95456.59
2023-02-09T10:48:41.518Z,95480.56
2023-02-09T10:49:40.070Z,95439.22
2023-02-09T10:50:48.406Z,95473.88
2023-02-09T10:51:45.003Z,95414.69
2023-02-09T10:52:56.319Z,95477.88
2023-02-09T10:53:55.713Z,95476.22
2023-02-09T10:54:52.302Z,95490.13
2023-02-09T10:55:49.144Z,95484.16
2023-02-09T10:56:48.427Z,95473.69
2023-02-09T10:57:44.980Z,95467.03
2023-02-09T10:58:41.938Z,95455.38
2023-02-09T10:59:41.445Z,95474.06
2023-02-09T11:00:51.437Z,95483.66
2023-02-09T11:01:57.592Z,95474.97
2023-02-09T11:02:57.720Z,95482.50
2023-02-09T11:04:02.091Z,95485.56
2023-02-09T11:04:58.741Z,95458.44
2023-02-09T11:06:02.736Z,95475.00
2023-02-09T11:07:02.521Z,95475.88
2023-02-09T11:08:06.680Z,95466.63
2023-02-09T11:09:12.076Z,95464.34
2023-02-09T11:10:13.146Z,95463.31
2023-02-09T11:11:37.741Z,95420.22
2023-02-09T11:12:35.487Z,95449.38
2023-02-09T11:13:33.374Z,95449.84
2023-02-09T11:14:30.235Z,95457.03
2023-02-09T11:15:31.379Z,95427.22
2023-02-09T11:16:56.114Z,95460.22
2023-02-09T11:18:10.989Z,95308.00
2023-02-09T11:19:26.128Z,95425.66
2023-02-09T11:20:37.823Z,95454.63
2023-02-09T11:22:01.465Z,95448.03
2023-02-09T11:23:17.745Z,95451.28
2023-02-09T11:24:37.356Z,95431.53
2023-02-09T11:25:43.655Z,95443.38
2023-02-09T11:26:51.506Z,95453.47
2023-02-09T11:28:25.324Z,95457.69
2023-02-09T11:29:40.951Z,95446.22
2023-02-09T11:30:49.862Z,95437.53
2023-02-09T11:32:02.093Z,95443.66
2023-02-09T11:33:26.700Z,95444.28
2023-02-09T11:34:26.424Z,95435.81
2023-02-09T11:35:26.902Z,95442.91
2023-02-09T11:36:23.646Z,95439.94
2023-02-09T11:37:37.241Z,95426.53
2023-02-09T11:38:38.335Z,95408.69
2023-02-09T11:40:07.873Z,95426.28
2023-02-09T11:41:29.738Z,95424.69
2023-02-09T11:42:46.834Z,95424.47
2023-02-09T11:43:45.779Z,95422.59
2023-02-09T11:44:53.403Z,95414.38